Time;durP1;ratioP1;P1;durP2;ratioP2;P2;SDS_P1;SDS_P2;PMS_P1;PMS_P2;Temp;Humidity;BMP_temperature;BMP_pressure;BME280_temperature;BME280_humidity;BME280_pressure;Samples;Min_cycle;Max_cycle;Signal;HPM_P1;HPM_P2
2022/06/29 00:02:02;;;;;;;25.38;6.30;;;22.70;87.40;;;;;;5045794;28;20028;-61
2022/06/29 00:04:27;;;;;;;19.08;5.85;;;22.70;87.40;;;;;;5024738;28;20116;-61
2022/06/29 00:06:53;;;;;;;25.33;5.82;;;22.70;87.50;;;;;;5048310;28;20037;-61
2022/06/29 00:09:18;;;;;;;28.33;6.80;;;22.70;87.60;;;;;;5056998;28;20032;-61
2022/06/29 00:11:44;;;;;;;24.33;6.40;;;22.70;87.50;;;;;;5026602;28;20028;-61
2022/06/29 00:14:09;;;;;;;31.10;7.60;;;22.70;87.40;;;;;;5052122;28;20032;-61
2022/06/29 00:16:35;;;;;;;24.67;6.50;;;22.70;87.30;;;;;;5026306;28;20508;-61
2022/06/29 00:19:00;;;;;;;25.13;6.13;;;22.70;87.40;;;;;;5049555;28;20033;-61
2022/06/29 00:21:26;;;;;;;17.92;6.18;;;22.70;87.30;;;;;;5051754;28;20045;-61
2022/06/29 00:23:51;;;;;;;16.80;5.32;;;22.70;87.40;;;;;;5050053;28;20025;-61
2022/06/29 00:26:17;;;;;;;18.88;5.32;;;22.70;87.50;;;;;;5026498;28;20033;-61
2022/06/29 00:28:42;;;;;;;14.85;5.40;;;22.60;87.60;;;;;;5053882;28;20024;-61
2022/06/29 00:31:08;;;;;;;19.50;5.10;;;22.60;87.70;;;;;;5048390;28;20025;-61
2022/06/29 00:33:33;;;;;;;21.05;5.88;;;22.60;87.70;;;;;;5049422;28;20033;-61
2022/06/29 00:35:59;;;;;;;24.30;5.90;;;22.60;87.80;;;;;;5055941;28;20036;-61
2022/06/29 00:38:24;;;;;;;19.30;5.57;;;22.60;87.90;;;;;;5052964;28;20028;-61
2022/06/29 00:40:50;;;;;;;17.38;5.25;;;22.50;87.70;;;;;;5050095;28;20485;-61
2022/06/29 00:43:15;;;;;;;18.13;5.25;;;22.60;87.90;;;;;;5033344;28;20388;-61
2022/06/29 00:45:41;;;;;;;19.13;5.32;;;22.50;87.90;;;;;;5044369;28;20154;-61
2022/06/29 00:48:07;;;;;;;17.85;4.60;;;22.50;87.90;;;;;;5043768;28;20017;-61
2022/06/29 00:50:33;;;;;;;18.63;4.85;;;22.50;88.00;;;;;;5050490;28;20318;-61
2022/06/29 00:53:02;;;;;;;14.20;4.68;;;22.50;88.00;;;;;;5012774;28;20479;-61
2022/06/29 00:55:28;;;;;;;16.25;4.35;;;22.50;88.10;;;;;;5040987;28;20140;-61
2022/06/29 00:57:53;;;;;;;17.77;5.85;;;22.50;88.10;;;;;;5024778;28;20131;-61
2022/06/29 01:00:19;;;;;;;17.48;5.88;;;22.50;88.10;;;;;;5041180;28;20140;-61
2022/06/29 01:02:44;;;;;;;16.17;5.80;;;22.50;88.10;;;;;;5027163;28;20111;-61
2022/06/29 01:05:10;;;;;;;20.13;6.07;;;22.50;87.90;;;;;;5041812;28;20024;-61
2022/06/29 01:07:35;;;;;;;14.95;5.60;;;22.50;87.90;;;;;;5051846;28;20480;-61
2022/06/29 01:10:01;;;;;;;14.75;5.13;;;22.40;87.90;;;;;;5047339;28;20028;-61
2022/06/29 01:12:27;;;;;;;16.88;5.68;;;22.40;88.00;;;;;;5038091;28;20049;-61
2022/06/29 01:14:53;;;;;;;16.15;7.13;;;22.40;88.10;;;;;;5023382;28;20059;-61
2022/06/29 01:17:19;;;;;;;17.38;8.35;;;22.30;88.10;;;;;;5037797;28;20082;-61
2022/06/29 01:19:45;;;;;;;18.33;7.45;;;22.40;88.30;;;;;;5023394;28;20087;-61
2022/06/29 01:22:11;;;;;;;12.63;5.40;;;22.40;88.30;;;;;;5042391;28;20040;-61
2022/06/29 01:24:37;;;;;;;13.50;6.32;;;22.30;88.30;;;;;;5044523;28;20044;-61
2022/06/29 01:27:03;;;;;;;17.38;6.20;;;22.30;88.30;;;;;;5021591;28;20025;-61
2022/06/29 01:29:29;;;;;;;13.98;6.88;;;22.30;88.30;;;;;;5041465;28;20032;-61
2022/06/29 01:31:55;;;;;;;16.52;5.82;;;22.30;88.40;;;;;;5048596;28;20039;-61
2022/06/29 01:34:21;;;;;;;11.07;5.90;;;22.30;88.40;;;;;;5041314;28;20436;-61
2022/06/29 01:36:46;;;;;;;13.80;5.93;;;22.30;88.50;;;;;;5024020;28;20091;-61
2022/06/29 01:39:12;;;;;;;17.55;6.25;;;22.30;88.50;;;;;;5048870;28;20052;-61
2022/06/29 01:41:37;;;;;;;18.65;5.97;;;22.30;88.50;;;;;;5044114;28;20060;-61
2022/06/29 01:44:03;;;;;;;11.82;5.72;;;22.30;88.50;;;;;;5052362;28;20469;-61
2022/06/29 01:46:29;;;;;;;15.38;5.25;;;22.20;88.50;;;;;;5042080;28;20029;-61
2022/06/29 01:48:54;;;;;;;16.92;6.05;;;22.20;88.60;;;;;;5044237;28;20055;-61
2022/06/29 01:51:20;;;;;;;12.85;5.18;;;22.30;88.60;;;;;;5050535;28;20033;-61
2022/06/29 01:53:45;;;;;;;13.85;5.57;;;22.20;88.70;;;;;;5034958;28;20056;-61
2022/06/29 01:56:11;;;;;;;9.10;5.05;;;22.20;88.70;;;;;;5041750;28;20037;-61
2022/06/29 01:58:36;;;;;;;12.57;5.40;;;22.20;88.70;;;;;;5051751;28;20033;-61
2022/06/29 02:01:02;;;;;;;12.75;5.82;;;22.20;89.30;;;;;;5053170;28;20298;-61
2022/06/29 02:03:27;;;;;;;13.15;5.63;;;22.20;88.60;;;;;;5049609;28;20040;-61
2022/06/29 02:05:53;;;;;;;8.95;5.20;;;22.20;88.50;;;;;;5038534;28;20021;-61
2022/06/29 02:08:18;;;;;;;13.00;4.93;;;22.20;88.40;;;;;;5042157;28;20063;-61
2022/06/29 02:10:44;;;;;;;11.95;5.57;;;22.20;88.30;;;;;;5050523;28;20127;-61
2022/06/29 02:13:09;;;;;;;12.88;5.57;;;22.20;88.30;;;;;;5053524;28;20444;-61
2022/06/29 02:15:35;;;;;;;10.45;5.43;;;22.20;88.90;;;;;;5043198;28;20531;-61
2022/06/29 02:18:00;;;;;;;11.32;5.00;;;22.20;88.30;;;;;;5041228;28;20138;-61
2022/06/29 02:20:26;;;;;;;9.50;5.32;;;22.20;88.50;;;;;;5024276;28;20115;-61
2022/06/29 02:22:51;;;;;;;10.57;5.25;;;22.10;88.40;;;;;;5050945;28;20033;-61
2022/06/29 02:25:17;;;;;;;12.40;5.05;;;22.10;88.50;;;;;;5047010;28;20694;-61
2022/06/29 02:27:46;;;;;;;6.05;4.63;;;22.10;88.60;;;;;;5024436;28;20493;-62
2022/06/29 02:30:14;;;;;;;13.88;5.55;;;22.10;88.60;;;;;;5048485;28;20211;-61
2022/06/29 02:35:25;;;;;;;10.32;5.38;;;22.10;88.60;;;;;;5027890;28;20665;-61
2022/06/29 02:37:51;;;;;;;8.10;4.82;;;22.00;88.60;;;;;;5039591;28;20044;-61
2022/06/29 02:40:16;;;;;;;8.57;5.13;;;22.00;88.70;;;;;;5043339;28;20044;-61
2022/06/29 02:42:42;;;;;;;11.32;5.60;;;22.00;88.80;;;;;;5047023;28;20033;-61
2022/06/29 02:45:08;;;;;;;10.82;4.57;;;22.00;88.80;;;;;;5052577;28;20056;-61
2022/06/29 02:47:33;;;;;;;10.73;4.80;;;22.00;88.90;;;;;;5048361;28;20461;-61
2022/06/29 02:49:59;;;;;;;9.07;4.72;;;22.10;89.00;;;;;;5039440;28;20629;-61
2022/06/29 02:52:24;;;;;;;9.52;4.97;;;22.00;88.90;;;;;;5039160;28;20484;-61
2022/06/29 02:54:50;;;;;;;15.43;5.88;;;22.00;88.80;;;;;;5026115;28;20048;-61
2022/06/29 02:57:15;;;;;;;9.45;6.15;;;22.00;88.80;;;;;;5045919;28;20049;-61
2022/06/29 02:59:41;;;;;;;9.40;5.50;;;22.00;88.60;;;;;;5051251;28;20036;-61
2022/06/29 03:02:06;;;;;;;11.25;6.00;;;21.90;88.60;;;;;;5041782;28;20044;-61
2022/06/29 03:04:34;;;;;;;11.38;5.93;;;21.90;88.70;;;;;;5042088;28;20394;-61
2022/06/29 03:07:00;;;;;;;6.95;4.70;;;21.90;88.80;;;;;;5041691;28;20473;-61
2022/06/29 03:09:26;;;;;;;8.43;5.10;;;21.90;88.90;;;;;;5038477;28;20045;-61
2022/06/29 03:11:52;;;;;;;8.15;4.30;;;21.90;89.00;;;;;;5042098;28;20384;-61
2022/06/29 03:14:17;;;;;;;7.93;4.97;;;21.80;89.00;;;;;;5044044;28;20029;-61
2022/06/29 03:16:43;;;;;;;7.60;4.70;;;21.80;89.20;;;;;;5026707;28;20109;-61
2022/06/29 03:19:08;;;;;;;9.15;5.30;;;21.80;89.30;;;;;;5046794;28;20037;-61
2022/06/29 03:21:34;;;;;;;9.75;5.20;;;21.80;89.50;;;;;;5050642;28;20029;-60
2022/06/29 03:23:59;;;;;;;11.25;5.45;;;21.80;89.60;;;;;;5049458;28;20028;-61
2022/06/29 03:26:25;;;;;;;11.73;5.28;;;21.80;89.50;;;;;;5046243;28;20028;-61
2022/06/29 03:28:52;;;;;;;10.55;4.72;;;21.80;90.00;;;;;;5057685;28;20047;-61
2022/06/29 03:31:19;;;;;;;6.85;4.80;;;21.80;89.40;;;;;;5044482;28;20017;-61
2022/06/29 03:33:45;;;;;;;9.60;6.38;;;21.80;89.40;;;;;;5045389;28;20107;-61
2022/06/29 03:36:11;;;;;;;12.00;6.90;;;21.80;89.40;;;;;;5051149;28;20171;-61
2022/06/29 03:38:36;;;;;;;12.50;5.65;;;21.70;89.40;;;;;;5040373;28;20056;-61
2022/06/29 03:41:02;;;;;;;12.25;5.28;;;21.70;89.40;;;;;;5040333;28;20303;-61
2022/06/29 03:43:28;;;;;;;7.40;5.43;;;21.80;89.40;;;;;;5046267;28;20028;-61
2022/06/29 03:45:53;;;;;;;7.60;5.05;;;21.70;89.30;;;;;;5048677;28;20358;-61
2022/06/29 03:48:19;;;;;;;8.05;4.95;;;21.70;89.30;;;;;;5057593;28;20040;-61
2022/06/29 03:50:44;;;;;;;12.10;5.00;;;21.80;89.30;;;;;;5043674;28;20033;-61
2022/06/29 03:53:10;;;;;;;8.27;5.00;;;21.70;89.20;;;;;;5027865;28;20028;-61
2022/06/29 03:55:35;;;;;;;8.80;4.70;;;21.70;89.20;;;;;;5053157;28;20040;-61
2022/06/29 03:58:01;;;;;;;10.45;4.85;;;21.70;89.20;;;;;;5045492;28;20044;-61
2022/06/29 04:00:26;;;;;;;7.03;4.55;;;21.70;89.30;;;;;;5042718;28;20060;-61
2022/06/29 04:02:52;;;;;;;10.32;4.70;;;21.70;89.30;;;;;;5039694;28;20351;-61
2022/06/29 04:05:17;;;;;;;7.75;4.35;;;21.60;89.90;;;;;;5040932;28;20391;-61
2022/06/29 04:07:43;;;;;;;8.77;4.50;;;21.60;89.30;;;;;;5053111;28;20031;-61
2022/06/29 04:10:09;;;;;;;8.63;4.63;;;21.70;89.40;;;;;;5055191;28;20562;-61
2022/06/29 04:12:36;;;;;;;10.65;4.95;;;21.70;89.40;;;;;;5049152;28;20271;-60
2022/06/29 04:15:02;;;;;;;9.25;4.88;;;21.70;89.40;;;;;;5051315;28;20630;-61
2022/06/29 04:17:28;;;;;;;11.65;4.80;;;21.60;89.30;;;;;;5038062;28;20354;-61
2022/06/29 04:19:53;;;;;;;10.77;4.97;;;21.60;89.40;;;;;;5039195;28;20044;-61
2022/06/29 04:22:19;;;;;;;27.48;5.97;;;21.60;89.30;;;;;;5043117;28;20060;-61
2022/06/29 04:24:46;;;;;;;42.47;6.80;;;21.60;89.30;;;;;;5042330;28;20083;-62
2022/06/29 04:27:11;;;;;;;33.83;7.18;;;21.60;89.40;;;;;;5024434;28;20537;-61
2022/06/29 04:29:37;;;;;;;44.50;7.47;;;21.60;89.40;;;;;;5037978;28;20036;-61
2022/06/29 04:32:03;;;;;;;37.97;7.50;;;21.60;89.40;;;;;;5043100;28;20068;-61
2022/06/29 04:34:29;;;;;;;40.97;6.85;;;21.60;89.50;;;;;;5039936;28;20428;-61
2022/06/29 04:36:54;;;;;;;29.52;6.47;;;21.60;89.50;;;;;;5040059;28;20032;-61
2022/06/29 04:39:20;;;;;;;39.72;7.30;;;21.60;89.40;;;;;;5040397;28;20037;-61
2022/06/29 04:41:45;;;;;;;23.23;6.57;;;21.60;89.40;;;;;;5037540;28;20052;-61
2022/06/29 04:44:11;;;;;;;23.63;6.68;;;21.60;89.40;;;;;;5040212;28;20407;-61
2022/06/29 04:46:36;;;;;;;25.45;6.40;;;21.60;89.40;;;;;;5044557;28;20043;-61
2022/06/29 04:49:02;;;;;;;21.02;6.35;;;21.60;89.40;;;;;;5023433;28;20037;-61
2022/06/29 04:51:29;;;;;;;20.65;5.80;;;21.60;89.40;;;;;;5040540;28;20029;-61
2022/06/29 04:53:55;;;;;;;26.70;5.60;;;21.60;89.50;;;;;;5039078;28;20124;-61
2022/06/29 04:56:22;;;;;;;13.88;5.30;;;21.60;89.40;;;;;;5041181;28;20029;-61
2022/06/29 04:58:48;;;;;;;23.13;5.28;;;21.60;89.40;;;;;;5008082;28;20515;-61
2022/06/29 05:01:14;;;;;;;19.48;5.85;;;21.60;89.30;;;;;;5038779;28;20424;-61
2022/06/29 05:03:39;;;;;;;20.00;5.70;;;21.60;89.40;;;;;;5038632;28;20028;-61
2022/06/29 05:06:05;;;;;;;21.50;4.97;;;21.60;89.40;;;;;;5040101;28;20052;-61
2022/06/29 05:08:30;;;;;;;21.92;5.35;;;21.60;89.50;;;;;;5039149;28;20033;-61
2022/06/29 05:10:56;;;;;;;22.67;5.35;;;21.60;89.50;;;;;;5039243;28;20330;-61
2022/06/29 05:13:21;;;;;;;17.15;5.32;;;21.50;89.60;;;;;;5050538;28;20044;-61
2022/06/29 05:15:47;;;;;;;14.52;5.32;;;21.60;89.70;;;;;;5024933;28;20163;-61
2022/06/29 05:18:13;;;;;;;25.35;6.18;;;21.50;89.70;;;;;;5048431;28;20033;-62
2022/06/29 05:20:38;;;;;;;15.25;5.55;;;21.50;89.90;;;;;;5048737;28;20029;-61
2022/06/29 05:23:07;;;;;;;24.58;5.72;;;21.50;90.00;;;;;;5055602;28;20047;-61
2022/06/29 05:25:33;;;;;;;16.55;5.60;;;21.60;90.10;;;;;;5053080;28;20634;-61
2022/06/29 05:27:58;;;;;;;13.38;5.10;;;21.60;90.00;;;;;;5054487;28;20294;-61
2022/06/29 05:30:24;;;;;;;20.60;5.53;;;21.60;90.00;;;;;;5023084;28;20363;-61
2022/06/29 05:32:50;;;;;;;15.82;5.20;;;21.50;89.90;;;;;;5041202;28;20125;-61
2022/06/29 05:35:15;;;;;;;15.05;5.13;;;21.50;89.90;;;;;;5041713;28;20057;-61
2022/06/29 05:37:41;;;;;;;17.38;5.68;;;21.60;89.90;;;;;;5048981;28;20353;-61
2022/06/29 05:40:07;;;;;;;17.05;5.07;;;21.50;89.90;;;;;;5032494;28;20109;-61
2022/06/29 05:42:32;;;;;;;27.17;5.97;;;21.50;89.90;;;;;;5044788;28;20039;-61
2022/06/29 05:44:58;;;;;;;39.85;7.03;;;21.60;90.00;;;;;;5050763;28;20029;-61
2022/06/29 05:47:23;;;;;;;29.33;5.82;;;21.60;90.10;;;;;;5054694;28;20454;-61
2022/06/29 05:49:49;;;;;;;19.23;5.65;;;21.60;90.00;;;;;;5014522;28;20037;-61
2022/06/29 05:52:14;;;;;;;12.32;5.22;;;21.60;90.00;;;;;;5048516;28;20031;-61
2022/06/29 05:54:40;;;;;;;12.52;5.00;;;21.60;90.40;;;;;;5030231;28;20675;-61
2022/06/29 05:57:06;;;;;;;11.15;4.78;;;21.60;90.40;;;;;;5044325;28;20674;-61
2022/06/29 05:59:32;;;;;;;12.52;4.93;;;21.50;90.60;;;;;;5044043;28;20033;-61
2022/06/29 06:01:57;;;;;;;11.95;4.45;;;21.50;90.60;;;;;;5033332;28;20376;-61
2022/06/29 06:04:23;;;;;;;10.18;4.68;;;21.50;90.90;;;;;;5038937;28;20500;-62
2022/06/29 06:06:49;;;;;;;13.55;5.38;;;21.50;91.30;;;;;;5046682;28;20029;-61
2022/06/29 06:09:14;;;;;;;18.08;4.97;;;21.40;91.10;;;;;;5038938;28;20032;-62
2022/06/29 06:11:40;;;;;;;17.13;5.00;;;21.40;91.40;;;;;;5051689;28;20060;-61
2022/06/29 06:14:05;;;;;;;10.38;4.90;;;21.40;91.50;;;;;;5049252;28;20103;-62
2022/06/29 06:16:31;;;;;;;8.05;4.88;;;21.30;91.50;;;;;;5045864;28;20084;-61
2022/06/29 06:18:56;;;;;;;16.35;4.93;;;21.30;91.70;;;;;;5038350;28;20535;-61
2022/06/29 06:21:22;;;;;;;10.85;4.03;;;21.30;91.90;;;;;;5054032;28;20630;-61
2022/06/29 06:23:48;;;;;;;6.85;4.20;;;21.20;92.00;;;;;;5038200;28;20035;-61
2022/06/29 06:26:13;;;;;;;7.75;4.60;;;21.20;92.00;;;;;;5040748;28;20612;-61
2022/06/29 06:28:40;;;;;;;9.68;4.20;;;21.10;92.10;;;;;;5032715;28;20067;-61
2022/06/29 06:31:07;;;;;;;8.95;3.65;;;21.20;92.10;;;;;;5039131;28;20028;-62
2022/06/29 06:33:32;;;;;;;6.05;3.80;;;21.10;92.00;;;;;;5048440;28;20033;-62
2022/06/29 06:35:59;;;;;;;8.02;3.72;;;21.10;92.00;;;;;;5038104;28;20035;-61
2022/06/29 06:38:24;;;;;;;164.60;30.17;;;21.10;91.90;;;;;;5035975;28;20515;-61
2022/06/29 06:43:34;;;;;;;315.83;40.45;;;21.20;91.90;;;;;;5040625;28;20059;-61
2022/06/29 06:45:59;;;;;;;551.90;69.10;;;21.10;91.90;;;;;;5053516;28;20646;-62
2022/06/29 06:48:25;;;;;;;404.95;50.38;;;21.10;91.70;;;;;;5054001;28;20445;-61
2022/06/29 06:50:50;;;;;;;265.42;33.67;;;21.20;91.60;;;;;;5047389;28;20352;-62
2022/06/29 06:53:16;;;;;;;250.32;31.60;;;21.20;91.50;;;;;;5040963;28;20040;-65
2022/06/29 06:55:41;;;;;;;173.90;25.92;;;21.20;91.40;;;;;;5038918;28;20028;-61
2022/06/29 06:58:07;;;;;;;235.63;32.40;;;21.20;91.30;;;;;;5046262;28;20037;-62
2022/06/29 07:00:33;;;;;;;146.18;24.17;;;21.30;91.30;;;;;;5035415;28;20112;-62
2022/06/29 07:02:58;;;;;;;174.82;25.88;;;21.30;91.30;;;;;;5049092;28;20576;-61
2022/06/29 07:05:25;;;;;;;171.05;24.25;;;21.30;91.20;;;;;;5050407;28;20060;-61
2022/06/29 07:07:51;;;;;;;177.05;24.70;;;21.30;91.20;;;;;;5046827;28;20074;-61
2022/06/29 07:10:16;;;;;;;139.35;20.65;;;21.30;91.10;;;;;;5048004;28;20516;-61
2022/06/29 07:12:42;;;;;;;138.55;20.60;;;21.30;91.10;;;;;;5044709;28;20033;-61
2022/06/29 07:15:07;;;;;;;98.13;16.35;;;21.40;91.20;;;;;;5038447;28;20041;-61
2022/06/29 07:17:33;;;;;;;82.57;15.93;;;21.30;91.10;;;;;;5045661;28;20051;-61
2022/06/29 07:19:58;;;;;;;91.70;14.77;;;21.40;91.10;;;;;;5038933;28;20024;-62
2022/06/29 07:22:25;;;;;;;102.38;15.07;;;21.40;91.20;;;;;;5025119;28;20389;-61
2022/06/29 07:24:50;;;;;;;79.13;12.68;;;21.40;91.00;;;;;;5046915;28;20031;-61
2022/06/29 07:27:16;;;;;;;67.78;13.07;;;21.40;91.10;;;;;;5030044;28;20040;-62
2022/06/29 07:29:41;;;;;;;83.22;11.95;;;21.50;91.30;;;;;;5049537;28;20036;-61
2022/06/29 07:32:07;;;;;;;83.32;12.20;;;21.50;91.40;;;;;;5020017;28;20035;-61
2022/06/29 07:34:33;;;;;;;58.80;10.25;;;21.40;91.30;;;;;;5032710;28;20035;-61
2022/06/29 07:36:58;;;;;;;57.45;10.38;;;21.50;91.40;;;;;;5038301;28;20166;-61
2022/06/29 07:39:24;;;;;;;65.50;10.32;;;21.50;91.40;;;;;;5023684;28;20165;-61
2022/06/29 07:41:49;;;;;;;69.25;10.30;;;21.50;91.40;;;;;;5038307;28;20158;-61
2022/06/29 07:44:15;;;;;;;60.78;9.48;;;21.50;91.40;;;;;;5023598;28;20116;-62
2022/06/29 07:46:40;;;;;;;54.00;9.20;;;21.50;91.40;;;;;;5049366;28;20020;-62
2022/06/29 07:49:06;;;;;;;72.00;10.55;;;21.50;91.40;;;;;;5032357;28;20772;-61
2022/06/29 07:51:31;;;;;;;57.83;10.25;;;21.50;91.40;;;;;;5029789;28;20109;-61
2022/06/29 07:53:57;;;;;;;55.90;9.60;;;21.60;91.30;;;;;;5046967;28;20096;-62
2022/06/29 07:56:22;;;;;;;58.53;9.43;;;21.60;91.30;;;;;;5046754;28;20062;-65
2022/06/29 07:58:48;;;;;;;62.33;9.55;;;21.60;91.10;;;;;;5048786;28;20063;-61
2022/06/29 08:01:13;;;;;;;50.55;7.90;;;21.60;91.00;;;;;;5045443;28;20781;-61
2022/06/29 08:03:40;;;;;;;42.90;8.13;;;21.70;91.00;;;;;;5051240;28;20063;-61
2022/06/29 08:06:05;;;;;;;52.95;9.05;;;21.70;91.00;;;;;;5033790;28;20036;-62
2022/06/29 08:08:31;;;;;;;60.70;8.90;;;21.70;91.00;;;;;;5034787;28;20061;-61
2022/06/29 08:10:56;;;;;;;45.42;8.18;;;21.70;90.90;;;;;;5031738;28;20052;-62
2022/06/29 08:13:22;;;;;;;54.33;9.10;;;21.80;90.90;;;;;;5035786;28;20059;-61
2022/06/29 08:15:48;;;;;;;41.20;7.10;;;21.90;90.90;;;;;;5053229;28;20610;-62
2022/06/29 08:18:14;;;;;;;57.67;8.75;;;21.90;90.70;;;;;;5052144;28;20058;-62
2022/06/29 08:20:40;;;;;;;42.35;7.55;;;21.90;90.60;;;;;;5051057;28;20027;-61
2022/06/29 08:23:06;;;;;;;48.78;8.63;;;22.00;90.50;;;;;;5016846;28;20055;-61
2022/06/29 08:25:31;;;;;;;34.83;7.03;;;22.00;90.40;;;;;;5036467;28;20045;-61
2022/06/29 08:27:57;;;;;;;38.55;7.75;;;22.00;90.20;;;;;;5042133;28;20111;-61
2022/06/29 08:30:23;;;;;;;36.97;6.57;;;22.10;90.10;;;;;;5052101;28;20056;-61
2022/06/29 08:32:49;;;;;;;38.63;6.28;;;22.10;89.80;;;;;;5041884;28;20302;-62
2022/06/29 08:35:15;;;;;;;29.33;5.75;;;22.10;89.50;;;;;;5039058;28;20029;-61
2022/06/29 08:37:41;;;;;;;46.85;7.50;;;22.10;89.50;;;;;;5037797;28;20554;-61
2022/06/29 08:40:10;;;;;;;58.58;8.95;;;22.10;89.50;;;;;;5019461;28;20029;-62
2022/06/29 08:42:37;;;;;;;51.22;7.90;;;22.10;89.50;;;;;;5034003;28;20044;-62
2022/06/29 08:45:09;;;;;;;54.15;8.10;;;22.10;89.50;;;;;;5018202;28;20028;-62
2022/06/29 08:47:35;;;;;;;50.55;8.18;;;22.10;89.40;;;;;;5019796;28;20115;-62
2022/06/29 08:50:05;;;;;;;41.03;7.25;;;22.10;89.40;;;;;;5033864;28;20028;-62
2022/06/29 08:52:30;;;;;;;53.28;9.02;;;22.10;89.30;;;;;;5038204;28;20111;-61
2022/06/29 08:54:56;;;;;;;71.85;10.30;;;22.20;89.40;;;;;;5037387;28;20392;-62
2022/06/29 08:57:22;;;;;;;47.45;7.50;;;22.20;89.30;;;;;;5020271;28;20067;-62
2022/06/29 08:59:50;;;;;;;36.47;7.13;;;22.20;89.10;;;;;;5039823;28;22025;-62
2022/06/29 09:02:15;;;;;;;42.97;7.30;;;22.30;89.10;;;;;;5020172;28;20064;-61
2022/06/29 09:04:41;;;;;;;30.83;6.03;;;22.30;88.90;;;;;;5032429;28;20132;-62
2022/06/29 09:07:06;;;;;;;38.13;6.72;;;22.30;88.70;;;;;;5031319;28;20068;-61
2022/06/29 09:09:46;;;;;;;32.13;5.95;;;22.40;88.70;;;;;;5048905;28;20037;-61
2022/06/29 09:12:17;;;;;;;49.08;6.20;;;22.40;88.30;;;;;;5022291;28;20032;-62
2022/06/29 09:14:43;;;;;;;42.63;5.85;;;22.40;88.00;;;;;;5014997;28;20495;-62
2022/06/29 09:17:08;;;;;;;55.88;8.32;;;22.50;87.50;;;;;;5047426;28;20137;-62
2022/06/29 09:19:37;;;;;;;44.17;6.72;;;22.50;87.30;;;;;;5042847;28;20031;-62
2022/06/29 09:22:03;;;;;;;33.55;6.15;;;22.50;87.10;;;;;;5044242;28;20037;-62
2022/06/29 09:24:34;;;;;;;37.47;5.85;;;22.50;86.80;;;;;;5044959;28;20048;-62
2022/06/29 09:27:11;;;;;;;34.40;5.90;;;22.60;86.80;;;;;;5028621;28;20483;-62
2022/06/29 09:29:39;;;;;;;32.63;5.85;;;22.60;86.70;;;;;;5029103;28;20024;-61
2022/06/29 09:32:05;;;;;;;39.35;5.95;;;22.70;86.60;;;;;;5027122;28;20043;-62
2022/06/29 09:34:34;;;;;;;39.47;6.65;;;22.70;86.30;;;;;;5045818;28;20033;-62
2022/06/29 09:37:00;;;;;;;61.35;7.00;;;22.80;86.20;;;;;;5034935;28;20181;-62
2022/06/29 09:39:39;;;;;;;34.83;5.38;;;22.80;85.90;;;;;;5039657;28;20336;-62
2022/06/29 09:42:06;;;;;;;24.35;5.15;;;22.80;85.60;;;;;;5026449;28;20186;-63
2022/06/29 09:44:31;;;;;;;33.45;5.25;;;22.80;85.60;;;;;;5048867;28;20436;-61
2022/06/29 09:46:57;;;;;;;26.80;5.97;;;22.80;85.70;;;;;;5050277;28;20123;-61
2022/06/29 09:49:28;;;;;;;31.90;6.07;;;22.80;85.80;;;;;;5054664;28;20037;-61
2022/06/29 09:51:57;;;;;;;24.30;5.57;;;22.80;85.90;;;;;;5034890;28;20028;-61
2022/06/29 09:54:33;;;;;;;31.10;5.85;;;22.90;85.80;;;;;;5024413;28;20025;-62
2022/06/29 09:56:59;;;;;;;36.60;5.85;;;22.90;85.60;;;;;;5038810;28;20376;-61
2022/06/29 10:02:34;;;;;;;37.35;5.05;;;22.90;85.60;;;;;;5050398;28;20047;-61
2022/06/29 10:05:07;;;;;;;37.47;5.35;;;23.00;85.30;;;;;;5049188;28;20066;-62
2022/06/29 10:07:34;;;;;;;40.42;6.25;;;22.90;85.20;;;;;;5050518;28;20036;-62
2022/06/29 10:10:00;;;;;;;19.90;4.90;;;23.10;85.00;;;;;;5041147;28;20070;-62
2022/06/29 10:15:30;;;;;;;26.80;4.57;;;23.20;84.50;;;;;;5020841;28;20619;-62
2022/06/29 10:18:04;;;;;;;21.23;4.85;;;23.20;84.20;;;;;;5018637;28;20155;-62
2022/06/29 10:20:43;;;;;;;15.65;4.22;;;23.30;83.60;;;;;;5030983;28;20504;-61
2022/06/29 10:23:15;;;;;;;24.20;5.57;;;23.30;82.90;;;;;;5033031;28;20053;-62
2022/06/29 10:25:41;;;;;;;21.42;5.30;;;23.40;82.70;;;;;;5016509;28;20103;-62
2022/06/29 10:28:16;;;;;;;31.17;5.65;;;23.40;82.50;;;;;;5016757;28;20029;-61
2022/06/29 10:30:43;;;;;;;54.88;7.55;;;23.50;82.20;;;;;;5029965;28;20028;-61
2022/06/29 10:33:34;;;;;;;20.80;5.32;;;23.40;81.90;;;;;;5030842;28;20357;-61
2022/06/29 10:36:04;;;;;;;40.50;6.45;;;23.40;81.80;;;;;;5047504;28;20865;-62
2022/06/29 10:38:33;;;;;;;38.75;6.88;;;23.50;81.40;;;;;;5032335;28;20911;-61
2022/06/29 10:41:09;;;;;;;39.97;6.18;;;23.50;81.30;;;;;;5033627;28;20039;-62
2022/06/29 10:43:37;;;;;;;28.30;4.57;;;23.50;81.20;;;;;;5032217;28;20025;-62
2022/06/29 10:46:03;;;;;;;23.30;4.95;;;23.60;80.60;;;;;;5025216;28;20144;-62
2022/06/29 10:48:31;;;;;;;25.33;3.92;;;23.60;79.90;;;;;;5013897;28;20040;-61
2022/06/29 10:50:56;;;;;;;21.50;3.38;;;23.70;78.50;;;;;;5046104;28;20025;-62
2022/06/29 10:53:22;;;;;;;11.85;3.13;;;23.70;77.70;;;;;;5015728;28;20021;-62
2022/06/29 10:55:49;;;;;;;23.48;3.55;;;23.80;77.10;;;;;;4998228;28;20032;-61
2022/06/29 10:58:15;;;;;;;18.15;3.55;;;23.90;76.80;;;;;;5014139;28;20110;-64
2022/06/29 11:00:42;;;;;;;19.88;3.83;;;24.00;76.60;;;;;;5031319;28;20202;-62
2022/06/29 11:03:10;;;;;;;35.80;5.93;;;24.00;76.60;;;;;;5037126;28;20077;-62
2022/06/29 11:05:36;;;;;;;31.75;4.78;;;24.10;76.20;;;;;;5026009;28;20029;-62
2022/06/29 11:13:30;;;;;;;32.65;6.15;;;24.40;75.10;;;;;;5043473;28;20426;-62
2022/06/29 11:15:57;;;;;;;24.55;5.30;;;24.50;74.20;;;;;;5033437;28;20049;-62
2022/06/29 11:18:40;;;;;;;73.50;10.25;;;24.70;73.70;;;;;;5034016;28;20259;-62
2022/06/29 11:21:06;;;;;;;38.92;5.65;;;24.70;73.60;;;;;;5043733;28;20129;-62
2022/06/29 11:23:35;;;;;;;28.73;4.53;;;24.80;73.30;;;;;;5013872;28;20171;-62
2022/06/29 11:26:04;;;;;;;34.20;4.70;;;24.90;73.10;;;;;;5010641;28;20028;-61
2022/06/29 11:28:31;;;;;;;19.67;4.10;;;25.00;73.60;;;;;;5032714;28;20031;-62
2022/06/29 11:31:04;;;;;;;20.90;3.78;;;25.10;73.20;;;;;;5037328;28;20117;-62
2022/06/29 11:33:31;;;;;;;18.55;3.65;;;25.20;72.80;;;;;;5017339;28;20566;-62
2022/06/29 11:35:57;;;;;;;15.05;3.15;;;25.30;72.80;;;;;;5032686;28;20040;-62
2022/06/29 11:38:29;;;;;;;23.88;3.65;;;25.60;72.40;;;;;;5030517;28;20063;-62
2022/06/29 11:40:54;;;;;;;12.98;3.03;;;25.60;72.20;;;;;;5008551;28;20059;-62
2022/06/29 11:43:20;;;;;;;17.85;3.25;;;25.60;72.20;;;;;;5019739;28;20032;-62
2022/06/29 11:45:47;;;;;;;16.67;3.42;;;25.70;72.30;;;;;;5034280;28;20126;-63
2022/06/29 11:48:20;;;;;;;22.92;4.38;;;25.80;72.00;;;;;;5024950;28;20032;-62
2022/06/29 11:51:01;;;;;;;31.42;4.03;;;25.80;71.90;;;;;;5051017;28;20089;-62
2022/06/29 11:53:43;;;;;;;32.28;5.05;;;25.90;71.80;;;;;;5034048;28;20116;-62
2022/06/29 11:56:13;;;;;;;24.50;4.35;;;26.00;70.90;;;;;;5045372;28;20135;-63
2022/06/29 11:58:39;;;;;;;23.73;3.50;;;26.10;71.00;;;;;;5027090;28;20464;-61
2022/06/29 12:01:13;;;;;;;26.85;5.18;;;26.20;70.60;;;;;;5033723;28;20036;-64
2022/06/29 12:03:39;;;;;;;21.83;4.07;;;26.30;70.20;;;;;;5028986;28;20047;-61
2022/06/29 12:06:05;;;;;;;22.30;4.25;;;26.40;69.60;;;;;;5051997;28;21398;-61
2022/06/29 12:08:30;;;;;;;37.90;4.65;;;26.40;68.80;;;;;;5038206;28;20033;-61
2022/06/29 12:10:57;;;;;;;23.35;4.35;;;26.50;68.80;;;;;;5023890;28;20533;-61
2022/06/29 12:13:23;;;;;;;27.50;4.85;;;26.50;68.10;;;;;;5040142;28;20024;-61
2022/06/29 12:15:49;;;;;;;29.05;4.22;;;26.50;68.50;;;;;;5037294;28;20087;-62
2022/06/29 12:18:16;;;;;;;47.45;6.20;;;26.60;69.00;;;;;;5047742;28;20115;-62
2022/06/29 12:20:44;;;;;;;24.20;4.00;;;26.70;68.40;;;;;;5036844;28;20074;-62
2022/06/29 12:23:09;;;;;;;23.13;4.32;;;26.70;67.90;;;;;;5039122;28;21511;-62
2022/06/29 12:25:35;;;;;;;25.90;4.75;;;26.80;67.40;;;;;;5039398;28;20071;-61
2022/06/29 12:28:02;;;;;;;31.95;5.53;;;26.90;67.40;;;;;;5049819;28;20114;-61
2022/06/29 12:30:28;;;;;;;47.35;5.30;;;26.90;67.40;;;;;;5050507;28;20028;-61
2022/06/29 12:32:53;;;;;;;33.92;5.25;;;26.90;67.50;;;;;;5040355;28;20495;-62
2022/06/29 12:35:19;;;;;;;33.83;4.97;;;26.90;67.60;;;;;;5005330;28;20151;-61
2022/06/29 12:37:44;;;;;;;29.92;4.97;;;27.00;68.10;;;;;;5039548;28;20106;-61
2022/06/29 12:40:11;;;;;;;29.20;5.28;;;27.10;68.20;;;;;;5031461;28;20029;-62
2022/06/29 12:42:37;;;;;;;19.83;3.38;;;27.20;68.10;;;;;;5032538;28;20048;-62
2022/06/29 12:45:04;;;;;;;34.60;5.25;;;27.10;67.50;;;;;;5032763;28;20028;-61
2022/06/29 12:47:30;;;;;;;36.22;5.68;;;27.10;67.90;;;;;;5051250;28;20046;-59
2022/06/29 12:49:55;;;;;;;22.88;4.18;;;27.10;68.20;;;;;;5032569;28;20029;-62